Time;durP1;ratioP1;P1;durP2;ratioP2;P2;SDS_P1;SDS_P2;PMS_P1;PMS_P2;Temp;Humidity;BMP_temperature;BMP_pressure;BME280_temperature;BME280_humidity;BME280_pressure;Samples;Min_cycle;Max_cycle;Signal;HPM_P1;HPM_P2
2022/01/21 00:00:16;;;;;;;8.73;2.88;;;;;;;1.65;100.00;103124.50;6221894;22;20020;-80
2022/01/21 00:02:45;;;;;;;11.38;2.45;;;;;;;1.71;100.00;103101.56;6267675;22;20412;-80
2022/01/21 00:05:24;;;;;;;13.38;2.97;;;;;;;1.77;100.00;103113.22;6249832;22;20034;-80
2022/01/21 00:07:52;;;;;;;11.55;3.22;;;;;;;1.79;100.00;103120.34;6251271;22;20018;-81
2022/01/21 00:10:21;;;;;;;18.98;2.50;;;;;;;1.82;100.00;103106.69;6253385;22;20022;-79
2022/01/21 00:12:52;;;;;;;10.60;2.58;;;;;;;1.81;100.00;103108.38;6185359;22;20023;-79
2022/01/21 00:15:26;;;;;;;15.07;2.60;;;;;;;1.80;100.00;103106.56;6259813;22;20014;-80
2022/01/21 00:17:54;;;;;;;;;;;;;;;1.82;100.00;103115.38;6220634;22;20024;-80
2022/01/21 00:31:33;;;;;;;21.48;3.17;;;;;;;2.13;100.00;103112.47;6261259;22;20035;-80
2022/01/21 00:34:01;;;;;;;13.63;2.50;;;;;;;2.15;100.00;103116.06;6270781;22;20054;-80
2022/01/21 00:36:30;;;;;;;16.10;3.10;;;;;;;2.14;100.00;103114.28;6281723;22;20026;-80
2022/01/21 00:38:59;;;;;;;16.83;3.05;;;;;;;2.14;100.00;103114.28;6216173;22;20120;-79
2022/01/21 00:41:32;;;;;;;21.38;2.60;;;;;;;2.11;100.00;103111.44;6252090;22;20020;-80
2022/01/21 00:44:00;;;;;;;14.80;3.10;;;;;;;2.10;100.00;103112.25;6265070;22;20369;-80
2022/01/21 00:46:29;;;;;;;16.48;2.80;;;;;;;2.06;100.00;103121.53;6271170;22;20020;-80
2022/01/21 00:49:01;;;;;;;16.45;3.83;;;;;;;2.03;100.00;103117.78;6217005;22;20030;-79
2022/01/21 00:51:30;;;;;;;12.18;3.15;;;;;;;1.99;100.00;103105.34;6256677;22;20011;-80
2022/01/21 00:53:59;;;;;;;13.52;2.70;;;;;;;1.98;100.00;103126.94;6211554;22;20058;-79
2022/01/21 00:56:28;;;;;;;11.98;2.22;;;;;;;1.97;100.00;103114.72;6250410;22;20031;-80
2022/01/21 00:58:57;;;;;;;11.07;2.22;;;;;;;2.00;100.00;103121.03;6216737;22;20027;-79
2022/01/21 01:01:28;;;;;;;13.98;2.65;;;;;;;2.01;100.00;103119.38;6219738;22;20020;-80
2022/01/21 01:03:57;;;;;;;13.80;2.83;;;;;;;2.03;100.00;103126.50;6247925;22;20023;-79
2022/01/21 01:06:27;;;;;;;11.95;2.50;;;;;;;2.04;100.00;103130.91;6243899;22;20020;-80
2022/01/21 01:08:57;;;;;;;17.95;2.97;;;;;;;2.06;100.00;103138.81;6266020;22;20028;-79
2022/01/21 01:22:46;;;;;;;12.98;2.72;;;;;;;2.09;100.00;103149.44;6233612;22;20012;-81
2022/01/21 01:28:04;;;;;;;23.48;3.17;;;;;;;2.12;100.00;103147.09;6253634;22;20590;-80
2022/01/21 01:30:41;;;;;;;15.50;2.97;;;;;;;2.13;100.00;103148.88;6233503;22;20330;-79
2022/01/21 01:33:13;;;;;;;13.20;2.60;;;;;;;2.12;100.00;103134.09;6241596;22;20229;-80
2022/01/21 01:35:43;;;;;;;11.43;2.58;;;;;;;2.09;100.00;103136.44;6225215;22;20015;-79
2022/01/21 01:38:40;;;;;;;14.18;2.13;;;;;;;2.06;100.00;103144.00;6166817;22;20024;-80
2022/01/21 01:41:13;;;;;;;10.40;2.60;;;;;;;2.01;100.00;103137.56;6247871;22;20233;-79
2022/01/21 01:49:37;;;;;;;8.20;2.13;;;;;;;1.89;100.00;103138.47;6280376;22;20510;-80
2022/01/21 01:52:09;;;;;;;9.45;2.67;;;;;;;1.87;100.00;103147.84;6192741;22;20020;-79
2022/01/21 01:54:42;;;;;;;12.48;2.38;;;;;;;1.87;100.00;103149.53;6243544;22;20028;-80
2022/01/21 01:57:11;;;;;;;7.63;2.30;;;;;;;1.85;100.00;103151.09;6241389;22;20015;-79
2022/01/21 01:59:41;;;;;;;10.48;1.75;;;;;;;1.84;100.00;103139.81;6277042;22;20026;-79
2022/01/21 02:02:13;;;;;;;6.43;1.88;;;;;;;1.84;100.00;103138.91;6239792;22;20012;-79
2022/01/21 02:04:44;;;;;;;13.10;2.75;;;;;;;1.82;100.00;103135.28;6281059;22;20457;-78
2022/01/21 02:07:17;;;;;;;6.65;1.65;;;;;;;1.81;100.00;103123.06;6248594;22;20227;-80
2022/01/21 02:09:46;;;;;;;11.07;1.92;;;;;;;1.78;100.00;103126.34;6280113;22;20016;-79
2022/01/21 02:12:15;;;;;;;12.10;2.00;;;;;;;1.77;100.00;103121.94;6279516;22;20035;-81
2022/01/21 02:14:49;;;;;;;10.48;2.08;;;;;;;1.74;100.00;103121.72;6242400;22;20026;-80
2022/01/21 02:22:52;;;;;;;10.10;1.80;;;;;;;1.67;100.00;103115.13;6222202;22;20438;-81
2022/01/21 02:25:21;;;;;;;17.42;3.05;;;;;;;1.64;100.00;103122.69;6217949;22;20444;-81
2022/01/21 02:27:57;;;;;;;4.63;1.58;;;;;;;1.62;100.00;103115.56;6247702;22;20019;-79
2022/01/21 02:30:26;;;;;;;11.35;2.17;;;;;;;1.61;100.00;103118.94;6238547;22;20137;-81
2022/01/21 02:32:59;;;;;;;11.30;2.25;;;;;;;1.59;100.00;103126.66;6209652;22;20019;-79
2022/01/21 02:35:28;;;;;;;17.27;2.45;;;;;;;1.59;100.00;103117.94;6251138;22;20163;-79
2022/01/21 02:37:58;;;;;;;11.85;1.83;;;;;;;1.61;100.00;103109.47;6216011;22;20019;-78
2022/01/21 02:40:31;;;;;;;11.50;1.95;;;;;;;1.64;100.00;103106.19;6261945;22;20020;-80
2022/01/21 02:42:59;;;;;;;7.28;1.90;;;;;;;1.66;100.00;103107.22;6206961;22;20019;-79
2022/01/21 02:45:29;;;;;;;3.47;1.30;;;;;;;1.68;100.00;103110.84;6239584;22;20231;-79
2022/01/21 02:48:01;;;;;;;12.90;2.58;;;;;;;1.69;100.00;103117.84;6273804;22;20011;-79
2022/01/21 02:50:31;;;;;;;13.15;2.08;;;;;;;1.68;100.00;103110.84;6219486;22;20024;-79
2022/01/21 02:53:13;;;;;;;10.50;1.67;;;;;;;1.68;100.00;103114.34;6241601;22;20015;-79
2022/01/21 02:55:41;;;;;;;8.15;2.30;;;;;;;1.68;100.00;103116.03;6248474;22;20030;-79
2022/01/21 02:58:10;;;;;;;11.13;2.17;;;;;;;1.66;100.00;103118.50;6281176;22;20004;-79
2022/01/21 03:00:39;;;;;;;9.25;2.17;;;;;;;1.66;100.00;103133.22;6247671;22;20027;-79
2022/01/21 03:03:10;;;;;;;5.35;1.42;;;;;;;1.65;100.00;103139.22;6279383;22;20492;-81
2022/01/21 03:05:41;;;;;;;9.02;1.92;;;;;;;1.64;100.00;103132.19;6214891;22;20524;-79
2022/01/21 03:08:10;;;;;;;13.40;2.15;;;;;;;1.64;100.00;103137.38;6215124;22;20026;-81
2022/01/21 03:10:38;;;;;;;7.18;1.98;;;;;;;1.65;100.00;103141.81;6275757;22;20113;-80
2022/01/21 03:13:07;;;;;;;5.47;1.50;;;;;;;1.66;100.00;103144.50;6249930;22;20346;-80
2022/01/21 03:15:36;;;;;;;8.32;1.80;;;;;;;1.69;100.00;103154.25;6185863;22;20024;-79
2022/01/21 03:18:04;;;;;;;11.25;1.52;;;;;;;1.71;100.00;103143.16;6253819;22;20019;-79
2022/01/21 03:20:34;;;;;;;11.90;2.08;;;;;;;1.73;100.00;103136.38;6236626;22;20019;-80
2022/01/21 03:23:03;;;;;;;15.98;2.72;;;;;;;1.75;100.00;103131.31;6230757;22;20015;-80
2022/01/21 03:25:33;;;;;;;15.25;2.08;;;;;;;1.78;100.00;103128.94;6237275;22;20019;-79
2022/01/21 03:28:01;;;;;;;9.13;1.95;;;;;;;1.79;100.00;103128.16;6243934;22;20024;-79
2022/01/21 03:30:36;;;;;;;6.32;1.67;;;;;;;1.81;100.00;103136.06;6230750;22;20030;-79
2022/01/21 03:33:10;;;;;;;13.07;2.10;;;;;;;1.82;100.00;103137.91;6282583;22;20476;-80
2022/01/21 03:35:39;;;;;;;9.77;2.05;;;;;;;1.81;100.00;103141.25;6212565;22;20232;-79
2022/01/21 03:38:08;;;;;;;11.27;2.25;;;;;;;1.80;100.00;103137.78;6171299;22;20034;-80
2022/01/21 03:40:37;;;;;;;9.77;2.13;;;;;;;1.80;100.00;103139.47;6189577;22;20082;-80
2022/01/21 03:43:05;;;;;;;11.52;2.30;;;;;;;1.78;100.00;103144.56;6278577;22;20015;-79
2022/01/21 03:45:34;;;;;;;13.88;2.25;;;;;;;1.77;100.00;103140.13;6226934;22;20373;-79
2022/01/21 03:48:03;;;;;;;9.63;1.90;;;;;;;1.74;100.00;103130.41;6240512;22;20026;-80
2022/01/21 03:50:33;;;;;;;17.20;3.05;;;;;;;1.73;100.00;103131.19;6238345;22;20030;-79
2022/01/21 03:53:03;;;;;;;12.65;2.17;;;;;;;1.71;100.00;103129.28;6280623;22;20015;-79
2022/01/21 03:55:34;;;;;;;11.20;1.83;;;;;;;1.70;100.00;103125.78;6202228;22;20020;-79
2022/01/21 03:58:07;;;;;;;16.23;2.53;;;;;;;1.72;100.00;103124.19;6256884;22;20030;-80
2022/01/21 04:00:53;;;;;;;11.30;1.77;;;;;;;1.75;100.00;103128.72;6276837;22;20384;-79
2022/01/21 04:03:23;;;;;;;8.15;1.92;;;;;;;1.77;100.00;103115.84;6274131;22;20012;-79
2022/01/21 04:05:53;;;;;;;10.57;1.70;;;;;;;1.78;100.00;103121.16;6282527;22;20023;-79
2022/01/21 04:08:28;;;;;;;6.68;1.58;;;;;;;1.78;100.00;103112.44;6201271;22;20027;-80
2022/01/21 04:11:00;;;;;;;5.97;1.80;;;;;;;1.75;100.00;103111.41;6269416;22;20020;-80
2022/01/21 04:13:37;;;;;;;3.53;1.27;;;;;;;1.73;100.00;103106.91;6243420;22;20535;-80
2022/01/21 04:16:09;;;;;;;10.52;1.17;;;;;;;1.72;100.00;103118.06;6222188;22;20449;-80
2022/01/21 04:18:39;;;;;;;4.68;1.30;;;;;;;1.69;100.00;103118.75;6241321;22;20016;-79
2022/01/21 04:21:11;;;;;;;6.35;1.67;;;;;;;1.67;100.00;103116.84;6246676;22;20456;-80
2022/01/21 04:23:42;;;;;;;4.05;1.40;;;;;;;1.64;100.00;103119.19;6206904;22;20129;-79
2022/01/21 04:26:17;;;;;;;8.10;1.48;;;;;;;1.63;100.00;103118.28;6266950;22;20016;-80
2022/01/21 04:28:46;;;;;;;3.53;1.38;;;;;;;1.64;100.00;103124.38;6275655;22;20488;-80
2022/01/21 04:31:14;;;;;;;4.93;1.30;;;;;;;1.65;100.00;103126.22;6218836;22;20015;-80
2022/01/21 04:33:50;;;;;;;6.05;1.20;;;;;;;1.66;100.00;103134.09;6210238;23;20421;-80
2022/01/21 04:36:19;;;;;;;4.25;1.23;;;;;;;1.67;100.00;103132.44;6207292;23;20027;-79
2022/01/21 04:38:48;;;;;;;4.43;1.33;;;;;;;1.68;100.00;103137.75;6186634;23;20024;-79
2022/01/21 04:41:35;;;;;;;5.47;1.35;;;;;;;1.68;100.00;103132.56;6214538;23;20067;-79
2022/01/21 04:49:41;;;;;;;5.72;1.50;;;;;;;1.70;100.00;103130.97;6202965;23;20119;-79
2022/01/21 04:52:13;;;;;;;4.93;1.40;;;;;;;1.71;100.00;103137.97;6160759;23;20024;-79
2022/01/21 04:54:53;;;;;;;15.32;2.00;;;;;;;1.70;100.00;103143.97;6156839;23;20039;-80
2022/01/21 04:57:23;;;;;;;9.45;1.75;;;;;;;1.70;100.00;103140.44;6195980;23;20017;-80
2022/01/21 04:59:51;;;;;;;6.55;1.55;;;;;;;1.68;100.00;103150.75;6205416;23;20028;-79
2022/01/21 05:02:24;;;;;;;9.77;1.70;;;;;;;1.68;100.00;103142.97;6172197;23;20482;-79
2022/01/21 05:04:52;;;;;;;6.60;1.65;;;;;;;1.66;100.00;103128.00;6175587;23;20020;-80
2022/01/21 05:07:25;;;;;;;14.97;2.17;;;;;;;1.64;100.00;103138.28;6156739;23;20024;-79
2022/01/21 05:09:55;;;;;;;11.57;1.50;;;;;;;1.61;100.00;103129.34;6189595;23;20024;-80
2022/01/21 05:12:26;;;;;;;23.63;2.25;;;;;;;1.59;100.00;103147.44;6228709;22;20031;-78
2022/01/21 05:17:30;;;;;;;6.78;1.52;;;;;;;1.58;100.00;103142.13;6251472;22;20404;-79
2022/01/21 05:20:06;;;;;;;11.65;2.53;;;;;;;1.56;100.00;103142.91;6214975;22;20020;-79
2022/01/21 05:22:54;;;;;;;8.88;2.40;;;;;;;1.53;100.00;103141.75;6279111;22;20318;-79
2022/01/21 05:25:23;;;;;;;6.68;2.30;;;;;;;1.51;100.00;103140.72;6233927;22;20015;-80
2022/01/21 05:27:58;;;;;;;12.35;2.20;;;;;;;1.50;100.00;103138.94;6255610;22;20024;-79
2022/01/21 05:30:29;;;;;;;14.82;2.30;;;;;;;1.48;100.00;103138.81;6245931;22;20483;-80
2022/01/21 05:33:33;;;;;;;5.00;1.73;;;;;;;1.50;100.00;103142.44;6233175;22;20035;-80
2022/01/21 05:36:40;;;;;;;12.23;2.38;;;;;;;1.52;100.00;103130.47;6255049;22;20478;-79
2022/01/21 05:39:32;;;;;;;12.07;2.38;;;;;;;1.54;100.00;103128.88;6228371;22;20027;-81
2022/01/21 05:42:13;;;;;;;23.02;2.50;;;;;;;1.59;100.00;103125.72;6165893;22;20024;-79
2022/01/21 05:48:20;;;;;;;12.80;2.53;;;;;;;1.70;100.00;103125.78;6279640;22;20019;-79
2022/01/21 05:51:09;;;;;;;14.13;3.17;;;;;;;1.76;100.00;103127.94;6253554;22;20019;-82
2022/01/21 05:53:58;;;;;;;10.43;2.08;;;;;;;1.83;100.00;103117.19;6245311;22;20027;-80
2022/01/21 05:56:32;;;;;;;13.65;2.30;;;;;;;1.90;100.00;103118.56;6242677;22;20124;-79
2022/01/21 05:59:11;;;;;;;9.38;1.85;;;;;;;1.96;100.00;103129.41;6278825;22;20023;-79
2022/01/21 06:01:39;;;;;;;10.52;1.75;;;;;;;2.01;100.00;103130.66;6188939;22;20144;-80
2022/01/21 06:04:09;;;;;;;9.18;1.55;;;;;;;2.04;100.00;103125.72;6272653;22;20023;-79
2022/01/21 06:06:38;;;;;;;6.57;2.30;;;;;;;2.07;100.00;103135.44;6282226;22;20029;-79
2022/01/21 06:09:07;;;;;;;10.77;2.33;;;;;;;2.07;100.00;103127.63;6218049;22;20254;-79
2022/01/21 06:11:36;;;;;;;6.93;1.88;;;;;;;2.08;100.00;103129.41;6230581;22;20055;-79
2022/01/21 06:14:04;;;;;;;12.82;2.85;;;;;;;2.10;100.00;103143.47;6256323;22;20020;-80
2022/01/21 06:16:38;;;;;;;14.07;1.95;;;;;;;2.10;100.00;103136.56;6273498;22;20028;-78
2022/01/21 06:19:07;;;;;;;7.55;2.15;;;;;;;2.09;100.00;103139.94;6243893;22;20027;-80
2022/01/21 06:21:38;;;;;;;6.45;2.42;;;;;;;2.09;100.00;103139.03;6274682;22;20063;-79
2022/01/21 06:24:07;;;;;;;11.95;2.28;;;;;;;2.11;100.00;103145.25;6226634;22;20027;-79
2022/01/21 06:26:37;;;;;;;17.25;2.97;;;;;;;2.10;100.00;103139.16;6240923;22;20601;-79
2022/01/21 06:29:05;;;;;;;7.22;2.10;;;;;;;2.11;100.00;103146.16;6196618;22;20026;-79
2022/01/21 06:31:34;;;;;;;12.25;2.60;;;;;;;2.11;100.00;103129.66;6216485;22;20023;-81
2022/01/21 06:34:03;;;;;;;13.63;2.28;;;;;;;2.10;100.00;103123.56;6284156;22;20026;-80
2022/01/21 06:36:31;;;;;;;10.38;2.65;;;;;;;2.11;100.00;103124.44;6217212;22;20018;-79
2022/01/21 06:39:00;;;;;;;18.42;3.25;;;;;;;2.09;100.00;103129.53;6275854;22;20019;-80
2022/01/21 06:41:29;;;;;;;17.08;3.38;;;;;;;2.09;100.00;103137.34;6221416;22;20020;-78
2022/01/21 06:43:57;;;;;;;17.77;2.78;;;;;;;2.11;100.00;103140.06;6207943;22;20020;-81
2022/01/21 06:46:26;;;;;;;14.55;2.47;;;;;;;2.09;100.00;103147.75;6233353;22;20047;-81
2022/01/21 06:48:55;;;;;;;15.38;2.53;;;;;;;2.09;100.00;103157.25;6257101;22;20219;-80
2022/01/21 06:51:24;;;;;;;13.55;2.85;;;;;;;2.08;100.00;103153.75;6242010;22;20023;-81
2022/01/21 06:53:53;;;;;;;16.98;3.78;;;;;;;2.06;100.00;103152.72;6229180;22;20012;-80
2022/01/21 06:56:21;;;;;;;17.02;3.00;;;;;;;2.04;100.00;103146.53;6246847;22;20366;-80
2022/01/21 06:58:50;;;;;;;18.10;2.65;;;;;;;2.03;100.00;103156.81;6207669;22;20031;-78
2022/01/21 07:01:18;;;;;;;12.52;2.67;;;;;;;2.02;100.00;103155.88;6296066;22;20353;-82
2022/01/21 07:03:50;;;;;;;16.98;4.13;;;;;;;2.01;100.00;103159.28;6215867;22;20019;-80
2022/01/21 07:06:18;;;;;;;9.70;2.28;;;;;;;2.00;100.00;103166.97;6276789;22;20027;-79
2022/01/21 07:08:47;;;;;;;17.23;2.20;;;;;;;1.98;100.00;103159.03;6241077;22;20141;-78
2022/01/21 07:11:16;;;;;;;13.52;2.45;;;;;;;1.95;100.00;103170.13;6229644;22;20563;-79
2022/01/21 07:13:45;;;;;;;16.48;2.35;;;;;;;1.95;100.00;103172.72;6275277;22;20030;-79
2022/01/21 07:16:14;;;;;;;20.45;3.17;;;;;;;1.92;100.00;103174.19;6229265;22;20012;-79
2022/01/21 07:18:44;;;;;;;19.38;3.05;;;;;;;1.91;100.00;103170.69;6210809;22;20023;-78
2022/01/21 07:21:12;;;;;;;13.60;2.20;;;;;;;1.91;100.00;103168.09;6252210;22;20012;-79
2022/01/21 07:23:41;;;;;;;12.38;2.35;;;;;;;1.92;100.00;103162.09;6227722;22;20476;-79
2022/01/21 07:26:12;;;;;;;10.18;2.50;;;;;;;1.95;100.00;103159.72;6239953;22;20514;-79
2022/01/21 07:28:41;;;;;;;20.63;2.70;;;;;;;1.99;100.00;103158.25;6202019;22;20047;-79
2022/01/21 07:31:09;;;;;;;12.45;2.88;;;;;;;2.03;100.00;103159.41;6250576;22;20026;-79
2022/01/21 07:33:38;;;;;;;13.35;2.35;;;;;;;2.06;100.00;103149.22;6207456;22;20028;-78
2022/01/21 07:36:07;;;;;;;12.40;2.33;;;;;;;2.07;100.00;103153.63;6216439;22;20019;-79
2022/01/21 07:38:38;;;;;;;14.18;2.20;;;;;;;2.10;100.00;103151.28;6214428;22;20532;-79
2022/01/21 07:41:07;;;;;;;14.50;2.60;;;;;;;2.10;100.00;103149.56;6240767;22;20020;-79
2022/01/21 07:43:40;;;;;;;12.55;2.58;;;;;;;2.11;100.00;103153.06;6247535;22;20063;-79
2022/01/21 07:46:15;;;;;;;19.20;3.00;;;;;;;2.12;100.00;103158.38;6256996;22;20022;-79
2022/01/21 07:48:53;;;;;;;11.73;2.60;;;;;;;2.12;100.00;103154.88;6266977;22;20015;-78
2022/01/21 07:51:21;;;;;;;10.43;2.58;;;;;;;2.11;100.00;103161.75;6194164;22;20263;-80
2022/01/21 07:53:50;;;;;;;16.38;2.42;;;;;;;2.10;100.00;103170.38;6248929;22;20317;-80
2022/01/21 07:56:18;;;;;;;12.35;2.70;;;;;;;2.10;100.00;103166.88;6215472;22;20023;-78
2022/01/21 07:58:47;;;;;;;15.57;2.53;;;;;;;2.10;100.00;103172.97;6235614;22;20035;-79
2022/01/21 08:01:16;;;;;;;8.27;2.35;;;;;;;2.10;100.00;103166.88;6221924;22;20559;-80
2022/01/21 08:03:45;;;;;;;12.50;3.10;;;;;;;2.08;100.00;103174.56;6238033;22;20019;-79
2022/01/21 08:06:14;;;;;;;13.20;2.42;;;;;;;2.07;100.00;103180.53;6199454;22;20027;-79
2022/01/21 08:08:42;;;;;;;11.90;2.92;;;;;;;2.05;100.00;103182.13;6276179;22;20019;-79
2022/01/21 08:11:11;;;;;;;14.05;2.45;;;;;;;2.05;100.00;103182.13;6207133;22;20050;-80
2022/01/21 08:13:39;;;;;;;11.18;1.92;;;;;;;2.04;100.00;103187.19;6244293;22;20026;-79
2022/01/21 08:16:10;;;;;;;15.23;3.05;;;;;;;2.02;100.00;103192.28;6232932;22;20027;-80
2022/01/21 08:18:41;;;;;;;9.30;2.30;;;;;;;2.00;100.00;103188.66;6247525;22;20023;-79
2022/01/21 08:21:18;;;;;;;13.05;2.75;;;;;;;1.97;100.00;103188.44;6238103;22;20043;-80
2022/01/21 08:23:48;;;;;;;17.80;3.22;;;;;;;1.97;100.00;103192.72;6245825;22;20016;-79
2022/01/21 08:26:23;;;;;;;15.85;3.08;;;;;;;1.98;100.00;103199.75;6281591;22;20027;-79
2022/01/21 08:28:52;;;;;;;24.05;3.33;;;;;;;2.01;100.00;103195.69;6263160;22;20020;-78
2022/01/21 08:31:21;;;;;;;14.18;2.35;;;;;;;2.01;100.00;103185.28;6253034;22;20377;-79
2022/01/21 08:33:51;;;;;;;14.65;3.42;;;;;;;2.03;100.00;103188.91;6242418;22;20023;-80
2022/01/21 08:36:21;;;;;;;18.55;3.20;;;;;;;2.06;100.00;103189.16;6265436;22;20034;-79
2022/01/21 08:38:53;;;;;;;18.42;3.13;;;;;;;2.09;100.00;103189.34;6267393;22;20027;-80
2022/01/21 08:41:22;;;;;;;15.75;2.97;;;;;;;2.13;100.00;103195.69;6260811;22;20020;-79
2022/01/21 08:43:51;;;;;;;24.25;2.80;;;;;;;2.18;100.00;103186.56;6230349;22;20236;-78
2022/01/21 08:46:21;;;;;;;14.35;2.90;;;;;;;2.23;100.00;103190.41;6275192;22;20024;-79
2022/01/21 08:48:50;;;;;;;28.02;4.28;;;;;;;2.28;100.00;103202.03;6273364;22;20023;-79
2022/01/21 08:51:25;;;;;;;18.25;3.55;;;;;;;2.32;100.00;103203.19;6291341;22;20024;-79
2022/01/21 08:53:54;;;;;;;19.77;3.42;;;;;;;2.36;100.00;103202.63;6255633;22;20046;-78
2022/01/21 08:56:23;;;;;;;18.60;4.38;;;;;;;2.42;100.00;103204.78;6251223;22;20026;-78
2022/01/21 08:58:52;;;;;;;13.95;2.97;;;;;;;2.45;100.00;103199.81;6257114;22;20923;-79
2022/01/21 09:01:20;;;;;;;16.65;3.92;;;;;;;2.47;100.00;103203.41;6246029;22;20031;-78
2022/01/21 09:03:51;;;;;;;20.85;4.03;;;;;;;2.48;100.00;103203.53;6233399;22;20028;-78
2022/01/21 09:06:20;;;;;;;20.58;3.38;;;;;;;2.50;100.00;103198.47;6268598;22;20020;-78
2022/01/21 09:08:49;;;;;;;18.75;4.57;;;;;;;2.50;100.00;103196.75;6228315;22;20047;-79
2022/01/21 09:11:18;;;;;;;14.55;3.53;;;;;;;2.51;100.00;103192.44;6235485;22;20011;-79
2022/01/21 09:13:47;;;;;;;21.92;3.78;;;;;;;2.51;100.00;103195.97;6219367;22;20026;-77
2022/01/21 09:16:34;;;;;;;29.23;3.85;;;;;;;2.52;100.00;103199.47;6150760;22;20513;-79
2022/01/21 09:19:03;;;;;;;26.95;3.85;;;;;;;2.54;100.00;103200.50;6270322;22;20149;-79
2022/01/21 09:21:36;;;;;;;20.92;3.40;;;;;;;2.56;100.00;103196.28;6270584;22;20027;-79
2022/01/21 09:24:05;;;;;;;14.50;3.38;;;;;;;2.59;100.00;103193.94;6236951;22;20020;-79
2022/01/21 09:26:34;;;;;;;20.90;3.35;;;;;;;2.62;100.00;103190.63;6235263;22;20034;-79
2022/01/21 09:29:05;;;;;;;22.83;4.35;;;;;;;2.66;100.00;103182.25;6244679;22;20020;-79
2022/01/21 09:31:34;;;;;;;28.17;4.90;;;;;;;2.71;100.00;103186.09;6240932;22;20028;-79
2022/01/21 09:34:26;;;;;;;21.75;3.75;;;;;;;2.78;100.00;103179.63;6270976;22;20023;-79
2022/01/21 09:36:57;;;;;;;21.45;4.00;;;;;;;2.83;100.00;103183.47;6205754;22;20047;-79
2022/01/21 09:39:28;;;;;;;25.15;4.22;;;;;;;2.89;100.00;103176.09;6269339;22;20019;-79
2022/01/21 09:41:59;;;;;;;22.15;3.42;;;;;;;2.96;100.00;103180.06;6254359;22;20023;-78
2022/01/21 09:44:31;;;;;;;16.73;3.50;;;;;;;3.02;100.00;103185.69;6278835;22;20070;-78
2022/01/21 09:47:04;;;;;;;30.70;5.72;;;;;;;3.08;100.00;103176.63;6259346;22;20039;-80
2022/01/21 09:49:34;;;;;;;12.07;3.65;;;;;;;3.15;100.00;103172.75;6234134;22;20046;-78
2022/01/21 09:52:06;;;;;;;18.98;4.72;;;;;;;3.22;100.00;103175.00;6273026;22;20039;-78
2022/01/21 09:54:48;;;;;;;20.60;4.05;;;;;;;3.30;100.00;103181.63;6246635;22;20051;-78
2022/01/21 09:57:22;;;;;;;23.77;4.32;;;;;;;3.38;100.00;103170.84;6275178;22;20023;-79
2022/01/21 09:59:53;;;;;;;13.48;3.85;;;;;;;3.48;100.00;103179.44;6270932;22;20636;-78
2022/01/21 10:02:27;;;;;;;17.83;4.00;;;;;;;3.60;100.00;103174.16;6223550;22;20395;-78
2022/01/21 10:04:58;;;;;;;15.23;2.95;;;;;;;3.71;100.00;103186.22;6267150;22;20023;-79
2022/01/21 10:07:28;;;;;;;;;;;;;;;3.83;100.00;103187.88;6300213;22;20330;-78
2022/01/21 10:10:08;;;;;;;7.82;2.25;;;;;;;3.93;100.00;103194.59;6286369;22;19918;-79
2022/01/21 10:12:50;;;;;;;12.20;2.42;;;;;;;4.01;100.00;103196.06;6262850;22;20390;-79
2022/01/21 10:15:18;;;;;;;15.82;2.10;;;;;;;4.05;100.00;103190.22;6275792;22;20634;-80
2022/01/21 10:18:02;;;;;;;12.95;2.55;;;;;;;4.12;100.00;103196.75;6232076;22;21062;-79
2022/01/21 10:21:14;;;;;;;12.18;2.60;;;;;;;4.19;100.00;103189.44;6240132;22;20020;-80
2022/01/21 10:23:44;;;;;;;18.73;3.08;;;;;;;4.25;100.00;103194.16;6185209;22;20325;-79
2022/01/21 10:26:16;;;;;;;11.52;2.47;;;;;;;4.30;100.00;103203.22;6233858;22;20019;-79
2022/01/21 10:28:54;;;;;;;12.77;2.35;;;;;;;4.33;100.00;103207.72;6270136;22;20026;-78
2022/01/21 10:31:24;;;;;;;18.10;2.85;;;;;;;4.35;100.00;103204.44;6268146;22;20030;-78
2022/01/21 10:33:59;;;;;;;17.73;3.60;;;;;;;4.37;100.00;103199.31;6239026;22;20473;-78
2022/01/21 10:36:35;;;;;;;17.23;3.63;;;;;;;4.39;100.00;103205.53;6263572;22;20028;-78
2022/01/21 10:39:17;;;;;;;24.63;3.60;;;;;;;4.40;100.00;103203.00;6264028;22;20559;-80
2022/01/21 10:41:50;;;;;;;11.48;2.95;;;;;;;4.41;100.00;103197.00;6267871;22;20472;-79
2022/01/21 10:44:20;;;;;;;26.85;4.85;;;;;;;4.43;100.00;103207.53;6197308;22;20023;-79
2022/01/21 10:47:11;;;;;;;26.65;4.78;;;;;;;4.44;100.00;103194.59;6233216;22;20231;-79
2022/01/21 10:49:43;;;;;;;20.95;3.35;;;;;;;4.46;100.00;103198.22;6208618;22;20473;-79
2022/01/21 10:52:15;;;;;;;16.40;3.42;;;;;;;4.50;100.00;103191.47;6204764;22;20023;-78
2022/01/21 10:54:49;;;;;;;15.63;2.60;;;;;;;4.51;100.00;103195.88;6234334;22;20028;-79
2022/01/21 10:57:19;;;;;;;12.18;2.22;;;;;;;4.54;100.00;103198.72;6249694;22;20364;-78
2022/01/21 10:59:59;;;;;;;14.30;2.63;;;;;;;4.56;100.00;103194.47;6255102;22;20015;-79
2022/01/21 11:02:41;;;;;;;18.00;3.22;;;;;;;4.58;100.00;103192.88;6268492;22;20020;-78
2022/01/21 11:05:33;;;;;;;24.40;3.97;;;;;;;4.61;100.00;103195.69;6234454;22;20024;-78
2022/01/21 11:08:07;;;;;;;24.60;3.72;;;;;;;4.65;100.00;103192.47;6283112;22;20214;-78
2022/01/21 11:10:37;;;;;;;24.38;4.15;;;;;;;4.68;100.00;103196.97;6270571;22;20007;-79
2022/01/21 11:13:13;;;;;;;30.60;6.05;;;;;;;4.69;100.00;103191.88;6260879;22;20049;-79
2022/01/21 11:15:48;;;;;;;20.65;6.03;;;;;;;4.73;100.00;103184.25;6272122;22;20381;-79
2022/01/21 11:19:07;;;;;;;18.95;4.22;;;;;;;4.79;100.00;103184.63;6275626;22;20050;-79
2022/01/21 11:21:47;;;;;;;30.02;3.83;;;;;;;4.82;100.00;103182.19;6260331;22;20051;-78
2022/01/21 11:24:18;;;;;;;26.83;3.53;;;;;;;4.85;100.00;103177.19;6266378;22;20430;-79
2022/01/21 11:27:08;;;;;;;22.77;4.32;;;;;;;4.87;100.00;103189.53;6230524;22;20030;-79
2022/01/21 11:29:38;;;;;;;36.85;5.63;;;;;;;4.90;100.00;103178.38;6241240;22;20016;-78
2022/01/21 11:32:08;;;;;;;33.10;4.20;;;;;;;4.92;100.00;103176.75;6243390;22;20994;-78
2022/01/21 11:34:37;;;;;;;20.17;3.40;;;;;;;4.95;100.00;103169.09;6275244;22;20023;-80
2022/01/21 11:37:07;;;;;;;24.92;3.28;;;;;;;5.01;100.00;103172.13;6228754;22;20324;-77
2022/01/21 11:39:36;;;;;;;31.58;4.03;;;;;;;5.05;100.00;103165.38;6209354;22;20023;-80
2022/01/21 11:42:07;;;;;;;17.13;2.80;;;;;;;5.11;100.00;103149.19;6229536;22;20024;-78
2022/01/21 11:44:41;;;;;;;20.67;3.47;;;;;;;5.18;100.00;103157.50;6259926;22;20028;-79
2022/01/21 11:49:52;;;;;;;16.63;3.33;;;;;;;5.30;100.00;103153.84;6267095;22;20016;-78
2022/01/21 11:52:21;;;;;;;19.30;2.70;;;;;;;5.33;100.00;103154.94;6261164;22;20019;-78
2022/01/21 11:54:53;;;;;;;23.15;3.50;;;;;;;5.36;100.00;103151.59;6228970;22;20027;-79
2022/01/21 11:57:31;;;;;;;15.75;3.60;;;;;;;5.41;100.00;103152.78;6269916;22;20024;-78
2022/01/21 12:02:34;;;;;;;18.92;3.65;;;;;;;5.50;100.00;103144.59;6237520;22;20023;-79
2022/01/21 12:05:07;;;;;;;19.65;2.42;;;;;;;5.54;100.00;103136.09;6273632;22;20144;-79
2022/01/21 12:07:41;;;;;;;11.27;2.40;;;;;;;5.59;100.00;103137.28;6265047;22;20020;-78
2022/01/21 12:10:12;;;;;;;17.45;2.80;;;;;;;5.62;100.00;103127.03;6255938;22;20026;-78
2022/01/21 12:15:28;;;;;;;19.98;3.45;;;;;;;5.69;100.00;103123.97;6262834;22;20357;-78
2022/01/21 12:18:10;;;;;;;18.13;2.67;;;;;;;5.73;100.00;103130.25;6230396;22;20024;-79
2022/01/21 12:20:39;;;;;;;13.50;2.17;;;;;;;5.72;100.00;103132.00;6246969;22;20016;-79
2022/01/21 12:23:14;;;;;;;14.23;3.20;;;;;;;5.74;100.00;103132.09;6179716;22;20024;-78
2022/01/21 12:26:14;;;;;;;12.55;2.70;;;;;;;5.74;100.00;103132.09;6252734;22;20028;-81
2022/01/21 12:29:08;;;;;;;14.73;2.35;;;;;;;5.73;100.00;103131.19;6266568;22;20019;-79
2022/01/21 12:31:45;;;;;;;13.43;3.08;;;;;;;5.75;100.00;103120.81;6235363;22;20019;-78
2022/01/21 12:34:28;;;;;;;17.77;2.47;;;;;;;5.74;100.00;103129.47;6237862;23;20354;-78
2022/01/21 12:37:07;;;;;;;15.20;2.47;;;;;;;5.74;100.00;103127.75;6214221;23;20257;-78
2022/01/21 12:39:48;;;;;;;15.88;2.95;;;;;;;5.74;100.00;103130.34;6202947;23;20024;-79